createdAt,value
2019-04-03T00:03:37.587Z,42.93
2019-04-03T00:06:28.317Z,43.31
2019-04-03T00:08:58.336Z,43.83
2019-04-03T00:11:47.346Z,43.91
2019-04-03T00:17:16.914Z,43.68
2019-04-03T00:19:47.678Z,43.44
2019-04-03T00:22:52.489Z,43.45
2019-04-03T00:25:09.920Z,43.51
2019-04-03T00:28:02.277Z,43.16
2019-04-03T00:31:05.242Z,42.22
2019-04-03T00:33:41.832Z,42.15
2019-04-03T00:36:30.749Z,42.81
2019-04-03T00:39:31.691Z,43.32
2019-04-03T00:41:51.347Z,43.25
2019-04-03T00:44:41.986Z,43.12
2019-04-03T00:47:25.454Z,42.98
2019-04-03T00:49:57.684Z,42.94
2019-04-03T00:52:28.100Z,42.95
2019-04-03T00:54:59.143Z,42.71
2019-04-03T00:57:48.995Z,42.40
2019-04-03T01:00:19.257Z,42.22
2019-04-03T01:02:49.267Z,41.93
2019-04-03T01:05:22.949Z,41.89
2019-04-03T01:07:53.097Z,41.35
2019-04-03T01:10:25.709Z,41.67
2019-04-03T01:12:55.957Z,41.79
2019-04-03T01:15:46.698Z,42.26
2019-04-03T01:18:16.744Z,41.55
2019-04-03T01:23:38.102Z,41.73
2019-04-03T01:26:27.941Z,42.07
2019-04-03T01:28:58.341Z,41.41
2019-04-03T01:31:49.841Z,41.21
2019-04-03T01:34:19.867Z,41.36
2019-04-03T01:37:08.958Z,41.15
2019-04-03T01:39:38.879Z,41.14
2019-04-03T01:42:31.034Z,41.13
2019-04-03T01:45:00.925Z,41.23
2019-04-03T01:47:30.993Z,41.80
2019-04-03T01:50:20.099Z,42.07
2019-04-03T01:53:20.892Z,42.09
2019-04-03T01:56:21.529Z,41.44
2019-04-03T01:58:51.461Z,41.34
2019-04-03T02:01:21.524Z,41.11
2019-04-03T02:04:12.196Z,41.12
2019-04-03T02:06:43.686Z,41.59
2019-04-03T02:09:33.298Z,41.16
2019-04-03T02:17:55.235Z,40.62
2019-04-03T02:20:38.029Z,41.47
2019-04-03T02:23:08.323Z,41.47
2019-04-03T02:25:38.339Z,41.13
2019-04-03T02:28:46.056Z,41.10
2019-04-03T02:31:19.999Z,41.17
2019-04-03T02:49:46.290Z,40.84
2019-04-03T02:52:16.268Z,40.43
2019-04-03T02:55:07.302Z,40.41
2019-04-03T03:00:36.795Z,40.67
2019-04-03T03:03:08.374Z,40.81
2019-04-03T03:06:00.693Z,40.39
2019-04-03T03:08:30.339Z,40.33
2019-04-03T03:11:00.224Z,40.25
2019-04-03T03:13:33.637Z,40.49
2019-04-03T03:19:02.482Z,40.42
2019-04-03T03:21:32.824Z,40.10
2019-04-03T03:24:02.624Z,40.49
2019-04-03T03:26:51.541Z,40.78
2019-04-03T03:29:25.280Z,40.95
2019-04-03T03:40:40.339Z,41.28
2019-04-03T03:43:37.064Z,41.35
2019-04-03T03:46:04.301Z,41.35
2019-04-03T03:48:53.258Z,41.34
2019-04-03T03:51:23.467Z,41.39
2019-04-03T03:53:55.653Z,41.86
2019-04-03T03:56:30.783Z,42.09
2019-04-03T03:58:58.294Z,42.71
2019-04-03T04:01:30.851Z,42.78
2019-04-03T04:04:18.765Z,43.27
2019-04-03T04:07:08.009Z,43.65
2019-04-03T04:09:39.254Z,44.25
2019-04-03T04:12:28.539Z,44.34
2019-04-03T04:15:08.863Z,44.62
2019-04-03T04:18:13.453Z,44.67
2019-04-03T04:20:30.119Z,44.27
2019-04-03T04:23:00.726Z,44.76
2019-04-03T04:25:32.242Z,44.99
2019-04-03T04:31:03.015Z,44.41
2019-04-03T04:33:33.106Z,44.94
2019-04-03T04:36:16.842Z,44.26
2019-04-03T04:38:36.391Z,44.86
2019-04-03T04:41:06.321Z,45.18
2019-04-03T04:46:48.595Z,46.02
2019-04-03T04:49:37.717Z,45.89
2019-04-03T04:55:19.099Z,45.98
2019-04-03T04:58:11.438Z,45.78
2019-04-03T05:01:00.199Z,45.94
2019-04-03T05:03:35.160Z,45.69
2019-04-03T05:06:23.917Z,45.51
2019-04-03T05:09:12.919Z,45.85
2019-04-03T05:12:01.951Z,45.90
2019-04-03T05:14:53.437Z,45.84
2019-04-03T05:17:46.073Z,45.87
2019-04-03T05:20:47.134Z,45.48
2019-04-03T05:23:56.081Z,45.99
2019-04-03T05:26:26.832Z,45.91
2019-04-03T05:31:47.591Z,45.35
2019-04-03T05:34:19.373Z,45.63
2019-04-03T05:37:10.930Z,45.97
2019-04-03T05:40:11.737Z,45.57
2019-04-03T05:43:01.767Z,45.68
2019-04-03T05:45:52.670Z,45.58
2019-04-03T05:48:43.692Z,45.81
2019-04-03T05:51:33.856Z,45.81
2019-04-03T05:54:22.834Z,46.05
2019-04-03T05:59:35.600Z,46.11
2019-04-03T06:02:14.724Z,46.23
2019-04-03T06:04:37.190Z,46.47
2019-04-03T06:19:09.507Z,47.47
2019-04-03T06:21:40.442Z,47.42
2019-04-03T06:30:03.602Z,47.90
2019-04-03T06:33:12.932Z,47.84
2019-04-03T06:38:46.002Z,48.01
2019-04-03T06:46:55.642Z,47.84
2019-04-03T06:49:25.677Z,48.10
2019-04-03T06:55:25.515Z,48.11
2019-04-03T06:57:56.307Z,47.93
2019-04-03T07:03:35.758Z,48.13
2019-04-03T07:08:49.756Z,48.41
2019-04-03T07:18:41.220Z,48.17
2019-04-03T07:21:20.685Z,47.23
2019-04-03T07:24:11.342Z,47.89
2019-04-03T07:30:01.909Z,47.59
2019-04-03T07:36:06.909Z,47.32
2019-04-03T07:45:12.100Z,48.04
2019-04-03T07:50:51.808Z,47.02
2019-04-03T07:53:40.775Z,46.75
2019-04-03T07:56:33.543Z,47.09
2019-04-03T08:05:46.523Z,46.47
2019-04-03T08:08:52.566Z,45.80
2019-04-03T08:11:39.734Z,45.89
2019-04-03T08:14:28.445Z,46.28
2019-04-03T08:20:04.227Z,46.06
2019-04-03T08:23:05.662Z,46.36
2019-04-03T08:25:36.954Z,46.36
2019-04-03T08:28:32.079Z,45.75
2019-04-03T08:34:42.382Z,45.15
2019-04-03T08:37:35.602Z,44.83
2019-04-03T08:40:46.053Z,44.10
2019-04-03T08:46:17.235Z,44.52
2019-04-03T08:49:07.211Z,45.00
2019-04-03T08:52:00.545Z,44.83
2019-04-03T08:55:08.471Z,44.72
2019-04-03T08:58:09.134Z,45.91
2019-04-03T09:01:11.835Z,47.40
2019-04-03T09:03:49.058Z,48.78
2019-04-03T09:06:40.246Z,49.58
2019-04-03T09:09:40.834Z,49.93
2019-04-03T09:12:10.759Z,50.38
2019-04-03T09:18:02.132Z,51.84
2019-04-03T09:21:05.137Z,53.13
2019-04-03T09:24:15.270Z,52.58
2019-04-03T09:33:26.330Z,54.37
2019-04-03T09:36:05.546Z,53.93
2019-04-03T09:41:40.930Z,54.42
2019-04-03T09:44:57.484Z,54.56
2019-04-03T09:50:33.383Z,54.33
2019-04-03T09:53:46.931Z,54.73
2019-04-03T09:59:20.234Z,54.87
2019-04-03T10:04:43.454Z,54.38
2019-04-03T10:07:35.815Z,53.69
2019-04-03T10:10:38.658Z,54.03
2019-04-03T10:13:28.121Z,53.94
2019-04-03T10:16:50.320Z,53.87
2019-04-03T10:19:30.507Z,53.22
2019-04-03T10:22:56.128Z,54.29
2019-04-03T10:28:19.150Z,53.57
2019-04-03T10:32:04.859Z,52.87
2019-04-03T10:37:36.836Z,52.10
2019-04-03T10:40:46.566Z,49.38
2019-04-03T10:43:18.752Z,49.41
2019-04-03T10:52:26.119Z,46.57
2019-04-03T11:04:23.938Z,46.89
2019-04-03T11:07:21.373Z,47.65
2019-04-03T11:09:53.259Z,47.14
2019-04-03T11:15:56.915Z,46.02
2019-04-03T11:22:39.202Z,45.38
2019-04-03T11:28:45.935Z,45.90
2019-04-03T11:31:41.405Z,45.90
2019-04-03T11:37:41.047Z,45.89
2019-04-03T11:43:30.835Z,46.52
2019-04-03T11:46:02.006Z,44.31
2019-04-03T11:52:02.022Z,45.09
2019-04-03T11:54:59.227Z,45.11
2019-04-03T12:03:43.569Z,42.41
2019-04-03T12:06:54.933Z,43.01
2019-04-03T12:25:20.628Z,41.84
2019-04-03T12:28:42.801Z,40.71
2019-04-03T12:31:35.142Z,41.35
2019-04-03T12:34:26.115Z,40.61
2019-04-03T12:37:18.770Z,40.95
2019-04-03T12:40:22.950Z,40.99
2019-04-03T12:43:25.246Z,39.30
2019-04-03T12:46:32.717Z,38.34
2019-04-03T12:49:34.691Z,39.00
2019-04-03T12:55:06.497Z,39.86
2019-04-03T12:58:18.119Z,40.46
2019-04-03T13:01:12.327Z,41.14
2019-04-03T13:04:12.171Z,41.14
2019-04-03T13:12:49.615Z,40.94
2019-04-03T13:15:23.735Z,39.57
2019-04-03T13:17:55.735Z,40.61
2019-04-03T13:21:09.530Z,40.61
2019-04-03T13:26:58.053Z,42.53
2019-04-03T13:36:07.317Z,44.98
2019-04-03T13:42:02.849Z,44.62
2019-04-03T13:47:52.134Z,42.96
2019-04-03T13:53:28.799Z,39.94
2019-04-03T13:57:09.243Z,41.34
2019-04-03T14:05:32.940Z,42.15
2019-04-03T14:08:23.131Z,42.45
2019-04-03T14:17:54.135Z,42.54
2019-04-03T14:30:38.437Z,41.91
2019-04-03T14:33:45.604Z,40.18
2019-04-03T14:36:34.706Z,40.19
2019-04-03T14:39:26.861Z,40.46
2019-04-03T14:42:10.913Z,41.21
2019-04-03T14:48:10.710Z,41.10
2019-04-03T15:03:13.780Z,40.47
2019-04-03T15:08:57.023Z,42.15
2019-04-03T15:14:56.701Z,41.73
2019-04-03T15:17:27.458Z,42.07
2019-04-03T15:20:10.375Z,42.57
2019-04-03T15:23:05.567Z,41.97
2019-04-03T15:32:20.445Z,43.46
2019-04-03T15:41:34.972Z,44.82
2019-04-03T15:47:03.001Z,45.82
2019-04-03T15:50:15.026Z,46.48
2019-04-03T15:56:29.047Z,48.19
2019-04-03T15:59:12.722Z,48.01
2019-04-03T16:01:53.626Z,50.01
2019-04-03T16:04:59.831Z,50.95
2019-04-03T16:11:19.820Z,50.29
2019-04-03T16:14:10.258Z,50.29
2019-04-03T16:20:04.520Z,48.55
2019-04-03T16:25:45.352Z,50.69
2019-04-03T16:28:18.869Z,51.83
2019-04-03T16:31:29.389Z,51.71
2019-04-03T16:43:21.190Z,52.12
2019-04-03T16:45:51.677Z,51.68
2019-04-03T16:48:43.771Z,52.12
2019-04-03T16:54:29.034Z,53.46
2019-04-03T17:00:42.752Z,53.83
2019-04-03T17:03:33.751Z,54.94
2019-04-03T17:06:06.823Z,53.52
2019-04-03T17:11:59.121Z,52.76
2019-04-03T17:17:51.447Z,54.07
2019-04-03T17:20:23.502Z,54.12
2019-04-03T17:23:14.006Z,53.97
2019-04-03T17:26:00.278Z,53.13
2019-04-03T17:28:19.787Z,52.00
2019-04-03T17:34:23.416Z,53.16
2019-04-03T17:40:22.387Z,54.11
2019-04-03T17:43:13.910Z,54.13
2019-04-03T17:46:05.772Z,53.84
2019-04-03T17:48:37.648Z,53.14
2019-04-03T18:00:51.652Z,53.26
2019-04-03T18:03:40.548Z,52.17
2019-04-03T18:06:31.427Z,52.73
2019-04-03T18:09:21.498Z,53.08
2019-04-03T18:12:27.870Z,53.44
2019-04-03T18:15:11.871Z,52.99
2019-04-03T18:17:43.214Z,52.42
2019-04-03T18:20:15.018Z,51.95
2019-04-03T18:23:06.256Z,52.29
2019-04-03T18:26:11.013Z,52.50
2019-04-03T18:29:07.287Z,51.31
2019-04-03T18:35:02.557Z,52.13
2019-04-03T18:40:41.503Z,51.98
2019-04-03T18:46:31.627Z,51.69
2019-04-03T18:52:07.704Z,52.92
2019-04-03T18:57:57.052Z,52.63
2019-04-03T19:03:12.107Z,52.91
2019-04-03T19:06:35.401Z,52.41
2019-04-03T19:09:04.451Z,51.81
2019-04-03T19:11:29.775Z,51.16
2019-04-03T19:17:10.500Z,53.07
2019-04-03T19:20:10.405Z,52.12
2019-04-03T19:29:35.485Z,53.71
2019-04-03T19:32:16.251Z,52.98
2019-04-03T19:35:08.893Z,52.98
2019-04-03T19:43:48.473Z,51.83
2019-04-03T19:46:20.931Z,52.92
2019-04-03T19:49:14.513Z,51.77
2019-04-03T19:55:19.348Z,51.42
2019-04-03T20:01:07.732Z,51.75
2019-04-03T20:03:45.991Z,51.23
2019-04-03T20:06:19.228Z,51.47
2019-04-03T20:09:09.711Z,51.44
2019-04-03T20:11:41.605Z,51.90
2019-04-03T20:14:30.739Z,52.53
2019-04-03T20:17:04.323Z,53.59
2019-04-03T20:19:55.931Z,53.31
2019-04-03T20:22:29.465Z,53.35
2019-04-03T20:25:39.793Z,53.73
2019-04-03T20:31:18.354Z,53.28
2019-04-03T20:34:04.017Z,53.39
2019-04-03T20:36:55.121Z,52.96
2019-04-03T20:42:34.808Z,52.98
2019-04-03T20:45:25.114Z,52.58
2019-04-03T20:48:15.431Z,52.38
2019-04-03T20:51:27.053Z,51.71
2019-04-03T20:54:17.067Z,51.05
2019-04-03T20:57:20.007Z,50.87
2019-04-03T21:03:05.566Z,52.21
2019-04-03T21:05:59.107Z,52.84
2019-04-03T21:11:58.772Z,54.01
2019-04-03T21:15:23.161Z,54.19
2019-04-03T21:18:02.622Z,53.86
2019-04-03T21:21:27.129Z,53.28
2019-04-03T21:24:04.719Z,52.61
2019-04-03T21:26:54.398Z,51.22
2019-04-03T21:29:45.373Z,51.01
2019-04-03T21:32:16.870Z,50.51
2019-04-03T21:37:42.925Z,51.61
2019-04-03T21:40:15.259Z,51.84
2019-04-03T21:42:46.765Z,51.07
2019-04-03T21:45:18.667Z,51.92
2019-04-03T21:51:39.424Z,52.34
2019-04-03T21:54:49.289Z,53.28
2019-04-03T21:57:21.224Z,53.22
2019-04-03T22:02:56.534Z,52.44
2019-04-03T22:05:31.113Z,52.58
2019-04-03T22:08:04.473Z,52.43
2019-04-03T22:10:36.291Z,52.31
2019-04-03T22:13:07.687Z,52.34
2019-04-03T22:15:59.068Z,52.49
2019-04-03T22:22:04.888Z,51.49
2019-04-03T22:24:55.190Z,51.04
2019-04-03T22:37:22.543Z,53.64
2019-04-03T22:43:16.323Z,53.30
2019-04-03T22:46:21.974Z,52.69
2019-04-03T22:54:33.009Z,53.60
2019-04-03T22:57:15.159Z,53.76
2019-04-03T22:59:55.904Z,53.75
2019-04-03T23:02:47.188Z,53.30
2019-04-03T23:05:37.880Z,53.58
2019-04-03T23:08:13.006Z,53.72
2019-04-03T23:11:24.971Z,54.22
2019-04-03T23:19:46.601Z,52.91
2019-04-03T23:22:23.889Z,53.13
2019-04-03T23:25:30.335Z,53.08
2019-04-03T23:34:26.636Z,53.02
2019-04-03T23:37:13.323Z,53.23
2019-04-03T23:43:08.504Z,53.39
2019-04-03T23:48:47.014Z,52.85
2019-04-03T23:54:33.576Z,52.96
2019-04-03T23:57:23.692Z,52.61
